sensor_id;sensor_type;location;lat;lon;timestamp;P1;P2;P0
74436;PMS7003;62868;52.360;30.424;2023-12-20T00:02:12;1.3;1;0.3
74436;PMS7003;62868;52.360;30.424;2023-12-20T00:06:34;1;0.7;0.3
74436;PMS7003;62868;52.360;30.424;2023-12-20T00:11:34;1.8;0.8;0.5
74436;PMS7003;62868;52.360;30.424;2023-12-20T00:16:34;2;1;0.7
74436;PMS7003;62868;52.360;30.424;2023-12-20T00:21:42;1.3;1;0.7
74436;PMS7003;62868;52.360;30.424;2023-12-20T00:27:12;1.3;1.3;1
74436;PMS7003;62868;52.360;30.424;2023-12-20T00:31:42;2;1;1
74436;PMS7003;62868;52.360;30.424;2023-12-20T00:36:54;0.7;0.7;0.7
74436;PMS7003;62868;52.360;30.424;2023-12-20T00:42:12;0.3;0.3;0
74436;PMS7003;62868;52.360;30.424;2023-12-20T00:47:12;1.3;1;1
74436;PMS7003;62868;52.360;30.424;2023-12-20T00:52:10;1.5;1;0.8
74436;PMS7003;62868;52.360;30.424;2023-12-20T00:56:50;1;0.7;0.7
74436;PMS7003;62868;52.360;30.424;2023-12-20T01:01:44;0.7;0.7;0.3
74436;PMS7003;62868;52.360;30.424;2023-12-20T01:06:26;2;1;1
74436;PMS7003;62868;52.360;30.424;2023-12-20T01:11:34;1.5;1;1
74436;PMS7003;62868;52.360;30.424;2023-12-20T01:17:12;1;1;0.7
74436;PMS7003;62868;52.360;30.424;2023-12-20T01:21:52;1;0.7;0.3
74436;PMS7003;62868;52.360;30.424;2023-12-20T01:27:02;1.3;1;0.7
74436;PMS7003;62868;52.360;30.424;2023-12-20T01:32:03;2.5;1.3;1
74436;PMS7003;62868;52.360;30.424;2023-12-20T01:37:02;1.3;1;1
74436;PMS7003;62868;52.360;30.424;2023-12-20T01:42:10;1.7;1.7;1.3
74436;PMS7003;62868;52.360;30.424;2023-12-20T01:46:26;2;1.3;1.3
74436;PMS7003;62868;52.360;30.424;2023-12-20T01:52:12;1.3;1;1
74436;PMS7003;62868;52.360;30.424;2023-12-20T01:56:40;2;1;1
74436;PMS7003;62868;52.360;30.424;2023-12-20T02:01:27;1.7;1.7;1
74436;PMS7003;62868;52.360;30.424;2023-12-20T02:07:12;1.5;1.5;1
74436;PMS7003;62868;52.360;30.424;2023-12-20T02:11:44;2.3;1.7;1.7
74436;PMS7003;62868;52.360;30.424;2023-12-20T02:16:34;1.7;1.3;1
74436;PMS7003;62868;52.360;30.424;2023-12-20T02:22:04;1.7;1.3;1.3
74436;PMS7003;62868;52.360;30.424;2023-12-20T02:27:03;1.5;1.3;0.8
74436;PMS7003;62868;52.360;30.424;2023-12-20T02:32:12;1.7;1.3;1
74436;PMS7003;62868;52.360;30.424;2023-12-20T02:36:34;2;2;1.7
74436;PMS7003;62868;52.360;30.424;2023-12-20T02:41:52;3.7;2.3;1.3
74436;PMS7003;62868;52.360;30.424;2023-12-20T02:47:03;2.3;2;1.8
74436;PMS7003;62868;52.360;30.424;2023-12-20T02:52:12;2.7;1.7;1.3
74436;PMS7003;62868;52.360;30.424;2023-12-20T02:57:03;2.7;1.3;1.3
74436;PMS7003;62868;52.360;30.424;2023-12-20T03:02:03;4;2;1.3
74436;PMS7003;62868;52.360;30.424;2023-12-20T03:06:44;2.5;2.5;1.8
74436;PMS7003;62868;52.360;30.424;2023-12-20T03:12:03;4.7;3;1.7
74436;PMS7003;62868;52.360;30.424;2023-12-20T03:17:12;2;1.7;1.7
74436;PMS7003;62868;52.360;30.424;2023-12-20T03:21:34;1.7;1.7;1.3
74436;PMS7003;62868;52.360;30.424;2023-12-20T03:26:26;3;1.8;1.5
74436;PMS7003;62868;52.360;30.424;2023-12-20T03:31:34;3.3;2.3;2
74436;PMS7003;62868;52.360;30.424;2023-12-20T03:36:28;3.3;2;2
74436;PMS7003;62868;52.360;30.424;2023-12-20T03:42:12;3.3;2.7;2.7
74436;PMS7003;62868;52.360;30.424;2023-12-20T03:47:03;3;2.5;2
74436;PMS7003;62868;52.360;30.424;2023-12-20T03:51:55;6.3;3;2
74436;PMS7003;62868;52.360;30.424;2023-12-20T03:56:32;3.3;2.7;1.7
74436;PMS7003;62868;52.360;30.424;2023-12-20T04:01:26;4.3;2.3;1.5
74436;PMS7003;62868;52.360;30.424;2023-12-20T04:07:13;5;3.3;2.7
74436;PMS7003;62868;52.360;30.424;2023-12-20T04:11:51;5.3;3.3;2.3
74436;PMS7003;62868;52.360;30.424;2023-12-20T04:17:03;4.7;4.3;2.3
74436;PMS7003;62868;52.360;30.424;2023-12-20T04:21:34;4;3;2.8
74436;PMS7003;62868;52.360;30.424;2023-12-20T04:26:37;3.7;3.3;1.7
74436;PMS7003;62868;52.360;30.424;2023-12-20T04:32:13;2;2;1.7
74436;PMS7003;62868;52.360;30.424;2023-12-20T04:37:03;4;3.3;2.3
74436;PMS7003;62868;52.360;30.424;2023-12-20T04:42:03;4;3.3;2.5
74436;PMS7003;62868;52.360;30.424;2023-12-20T04:46:41;5.3;4;3
74436;PMS7003;62868;52.360;30.424;2023-12-20T04:52:03;6.3;3.7;2.3
74436;PMS7003;62868;52.360;30.424;2023-12-20T04:57:13;4.7;3.3;2.3
74436;PMS7003;62868;52.360;30.424;2023-12-20T05:01:27;4;3;2.5
74436;PMS7003;62868;52.360;30.424;2023-12-20T05:06:33;3;2.3;1.7
74436;PMS7003;62868;52.360;30.424;2023-12-20T05:11:35;4;2.3;1.7
74436;PMS7003;62868;52.360;30.424;2023-12-20T05:17:03;2.7;2.7;1.7
74436;PMS7003;62868;52.360;30.424;2023-12-20T05:22:03;5;4;2
74436;PMS7003;62868;52.360;30.424;2023-12-20T05:27:03;4.7;4.3;3
74436;PMS7003;62868;52.360;30.424;2023-12-20T05:32:03;4.7;4;2.3
74436;PMS7003;62868;52.360;30.424;2023-12-20T05:36:37;5.3;4;2.3
74436;PMS7003;62868;52.360;30.424;2023-12-20T05:42:03;4.8;4;2.5
74436;PMS7003;62868;52.360;30.424;2023-12-20T05:46:37;6;4.7;3.3
74436;PMS7003;62868;52.360;30.424;2023-12-20T05:51:51;5;4.3;2.7
74436;PMS7003;62868;52.360;30.424;2023-12-20T05:56:27;5.5;4;2.5
74436;PMS7003;62868;52.360;30.424;2023-12-20T06:01:27;6.3;5.3;3
74436;PMS7003;62868;52.360;30.424;2023-12-20T06:06:40;6;4.7;3.7
74436;PMS7003;62868;52.360;30.424;2023-12-20T06:11:45;6.7;5;2.7
74436;PMS7003;62868;52.360;30.424;2023-12-20T06:17:03;7.3;4.3;2.8
74436;PMS7003;62868;52.360;30.424;2023-12-20T06:21:55;5;4.3;3.7
74436;PMS7003;62868;52.360;30.424;2023-12-20T06:26:27;8;6.3;5
74436;PMS7003;62868;52.360;30.424;2023-12-20T06:31:53;6.3;5.7;4
74436;PMS7003;62868;52.360;30.424;2023-12-20T06:37:13;9.3;7;4.5
74436;PMS7003;62868;52.360;30.424;2023-12-20T06:41:53;6;5.3;3.7
74436;PMS7003;62868;52.360;30.424;2023-12-20T06:46:27;8.3;6.3;5
74436;PMS7003;62868;52.360;30.424;2023-12-20T06:51:35;7.3;5;3.3
74436;PMS7003;62868;52.360;30.424;2023-12-20T06:57:03;8.5;6.8;5.3
74436;PMS7003;62868;52.360;30.424;2023-12-20T07:02:11;5;5;3.3
74436;PMS7003;62868;52.360;30.424;2023-12-20T07:06:55;7;6;4.3
74436;PMS7003;62868;52.360;30.424;2023-12-20T07:12:03;7.3;6;4.3
74436;PMS7003;62868;52.360;30.424;2023-12-20T07:16:27;6.5;4.8;2.8
74436;PMS7003;62868;52.360;30.424;2023-12-20T07:21:35;6;4.7;3
74436;PMS7003;62868;52.360;30.424;2023-12-20T07:27:13;5.7;4.3;3
74436;PMS7003;62868;52.360;30.424;2023-12-20T07:31:27;6.3;6;3.7
74436;PMS7003;62868;52.360;30.424;2023-12-20T07:36:27;4.5;3.5;2.8
74436;PMS7003;62868;52.360;30.424;2023-12-20T07:41:27;6;4.7;3
74436;PMS7003;62868;52.360;30.424;2023-12-20T07:47:01;6.7;5.7;4
74436;PMS7003;62868;52.360;30.424;2023-12-20T07:52:09;7.8;6;4.5
74436;PMS7003;62868;52.360;30.424;2023-12-20T07:57:13;6.3;4.3;4
74436;PMS7003;62868;52.360;30.424;2023-12-20T08:01:53;6;5.7;3.7
74436;PMS7003;62868;52.360;30.424;2023-12-20T08:06:43;4.7;4.7;3.7
74436;PMS7003;62868;52.360;30.424;2023-12-20T08:11:57;5;4;2.5
74436;PMS7003;62868;52.360;30.424;2023-12-20T08:17:13;8.3;3.3;3
74436;PMS7003;62868;52.360;30.424;2023-12-20T08:21:27;8;6;4
74436;PMS7003;62868;52.360;30.424;2023-12-20T08:26:27;7.7;6.3;4.7
74436;PMS7003;62868;52.360;30.424;2023-12-20T08:31:43;7.8;5.8;3.8
74436;PMS7003;62868;52.360;30.424;2023-12-20T08:37:05;5.7;5;3.3
74436;PMS7003;62868;52.360;30.424;2023-12-20T08:42:13;8.7;7;4.7
74436;PMS7003;62868;52.360;30.424;2023-12-20T08:46:27;7.3;6;4.7
74436;PMS7003;62868;52.360;30.424;2023-12-20T08:52:01;6;5.3;3.5
74436;PMS7003;62868;52.360;30.424;2023-12-20T08:56:53;5.3;4;2.7
74436;PMS7003;62868;52.360;30.424;2023-12-20T09:01:35;6.3;4.7;2.7
74436;PMS7003;62868;52.360;30.424;2023-12-20T09:07:03;4.7;4.3;3
74436;PMS7003;62868;52.360;30.424;2023-12-20T09:11:35;5;3.5;2.3
74436;PMS7003;62868;52.360;30.424;2023-12-20T09:16:27;5.7;4;2.7
74436;PMS7003;62868;52.360;30.424;2023-12-20T09:21:27;7.3;5.3;4
74436;PMS7003;62868;52.360;30.424;2023-12-20T09:27:03;5.7;3.3;2.7
74436;PMS7003;62868;52.360;30.424;2023-12-20T09:32:13;4.5;3.8;2.5
74436;PMS7003;62868;52.360;30.424;2023-12-20T09:36:53;7;3;2.3
74436;PMS7003;62868;52.360;30.424;2023-12-20T09:42:03;5.3;4;2.7
74436;PMS7003;62868;52.360;30.424;2023-12-20T09:46:42;3;2.8;2.3
74436;PMS7003;62868;52.360;30.424;2023-12-20T09:51:47;5.7;2.7;1.7
74436;PMS7003;62868;52.360;30.424;2023-12-20T09:57:15;5.7;4;2.3
74436;PMS7003;62868;52.360;30.424;2023-12-20T10:01:43;3.3;2.3;1.7
74436;PMS7003;62868;52.360;30.424;2023-12-20T10:06:27;3.8;2.5;2.3
74436;PMS7003;62868;52.360;30.424;2023-12-20T10:11:27;2.7;2.7;1.7
74436;PMS7003;62868;52.360;30.424;2023-12-20T10:17:03;3;2.7;2
74436;PMS7003;62868;52.360;30.424;2023-12-20T10:22:13;5.3;3.3;2.3
74436;PMS7003;62868;52.360;30.424;2023-12-20T10:27:02;4;2.8;2.3
74436;PMS7003;62868;52.360;30.424;2023-12-20T10:31:29;3.7;2.3;2.3
74436;PMS7003;62868;52.360;30.424;2023-12-20T10:36:55;4.3;2.7;2.3
74436;PMS7003;62868;52.360;30.424;2023-12-20T10:41:27;4;3;2.3
74436;PMS7003;62868;52.360;30.424;2023-12-20T10:46:51;3;2.8;1.8
74436;PMS7003;62868;52.360;30.424;2023-12-20T10:51:27;3.3;3;2.3
74436;PMS7003;62868;52.360;30.424;2023-12-20T10:56:27;2.7;2.3;2
74436;PMS7003;62868;52.360;30.424;2023-12-20T11:01:45;3.7;2.3;1.3
74436;PMS7003;62868;52.360;30.424;2023-12-20T11:07:05;4;3;2.3
74436;PMS7003;62868;52.360;30.424;2023-12-20T11:12:15;4.7;3.3;2
74436;PMS7003;62868;52.360;30.424;2023-12-20T11:17:08;2.3;2.3;1.7
74436;PMS7003;62868;52.360;30.424;2023-12-20T11:21:43;3.7;2;1.7
74436;PMS7003;62868;52.360;30.424;2023-12-20T11:26:55;2.5;1.8;1.3
74436;PMS7003;62868;52.360;30.424;2023-12-20T11:31:54;1.7;1.7;1.3
74436;PMS7003;62868;52.360;30.424;2023-12-20T11:37:13;2;1;1
74436;PMS7003;62868;52.360;30.424;2023-12-20T11:42:05;1.8;1.3;0.8
74436;PMS7003;62868;52.360;30.424;2023-12-20T11:47:09;2.7;1.7;1
74436;PMS7003;62868;52.360;30.424;2023-12-20T11:52:03;2;1.7;1.3
74436;PMS7003;62868;52.360;30.424;2023-12-20T11:56:35;2.3;2;1.3
74436;PMS7003;62868;52.360;30.424;2023-12-20T12:01:53;2;1;1
74436;PMS7003;62868;52.360;30.424;2023-12-20T12:07:13;2.3;1.7;1.3
74436;PMS7003;62868;52.360;30.424;2023-12-20T12:11:55;3;1.3;1.3
74436;PMS7003;62868;52.360;30.424;2023-12-20T12:17:03;3.3;2.3;1.3
74436;PMS7003;62868;52.360;30.424;2023-12-20T12:22:03;2.3;1.8;1.3
74436;PMS7003;62868;52.360;30.424;2023-12-20T12:27:13;1;1;1
74436;PMS7003;62868;52.360;30.424;2023-12-20T12:31:35;2.3;1;1
74436;PMS7003;62868;52.360;30.424;2023-12-20T12:36:45;1.3;1;1
74436;PMS7003;62868;52.360;30.424;2023-12-20T12:42:15;2;1.5;1
74436;PMS7003;62868;52.360;30.424;2023-12-20T12:46:27;1.7;1.3;0.7
74436;PMS7003;62868;52.360;30.424;2023-12-20T12:52:15;1.7;1.3;0.7
74436;PMS7003;62868;52.360;30.424;2023-12-20T12:57:13;0.7;0.7;0.3
74436;PMS7003;62868;52.360;30.424;2023-12-20T13:01:55;1.8;1;0.8
74436;PMS7003;62868;52.360;30.424;2023-12-20T13:06:55;1.3;1;0.7
74436;PMS7003;62868;52.360;30.424;2023-12-20T13:11:27;2;1.3;0.3
74436;PMS7003;62868;52.360;30.424;2023-12-20T13:16:47;1;1;1
74436;PMS7003;62868;52.360;30.424;2023-12-20T13:21:45;1.8;1.8;1
74436;PMS7003;62868;52.360;30.424;2023-12-20T13:26:27;2.3;2.3;1.7
74436;PMS7003;62868;52.360;30.424;2023-12-20T13:32:05;4;3;1.3
74436;PMS7003;62868;52.360;30.424;2023-12-20T13:36:43;8;6.3;4
74436;PMS7003;62868;52.360;30.424;2023-12-20T13:42:13;10.8;8.5;5.8
74436;PMS7003;62868;52.360;30.424;2023-12-20T13:47:15;6.3;4.7;3
74436;PMS7003;62868;52.360;30.424;2023-12-20T13:51:29;6.3;3.3;2.7
74436;PMS7003;62868;52.360;30.424;2023-12-20T13:56:55;5;4.5;2.5
74436;PMS7003;62868;52.360;30.424;2023-12-20T14:01:35;4.3;3;2
74436;PMS7003;62868;52.360;30.424;2023-12-20T14:07:03;6;3.7;3
74436;PMS7003;62868;52.360;30.424;2023-12-20T14:11:27;5.7;3.7;2.3
74436;PMS7003;62868;52.360;30.424;2023-12-20T14:16:27;5.3;3.3;2
74436;PMS7003;62868;52.360;30.424;2023-12-20T14:22:13;3;2.3;1.7
74436;PMS7003;62868;52.360;30.424;2023-12-20T14:26:33;2;1.7;1.3
74436;PMS7003;62868;52.360;30.424;2023-12-20T14:31:29;3.3;2;1.7
74436;PMS7003;62868;52.360;30.424;2023-12-20T14:37:03;2.7;2.3;1.7
74436;PMS7003;62868;52.360;30.424;2023-12-20T14:42:03;5.3;3;1.8
74436;PMS7003;62868;52.360;30.424;2023-12-20T14:47:15;3.7;3;2
74436;PMS7003;62868;52.360;30.424;2023-12-20T14:51:53;4.7;2.3;1.3
74436;PMS7003;62868;52.360;30.424;2023-12-20T14:56:29;4;2;1.5
74436;PMS7003;62868;52.360;30.424;2023-12-20T15:01:27;1.7;1.3;1
74436;PMS7003;62868;52.360;30.424;2023-12-20T15:06:53;2;1;1
74436;PMS7003;62868;52.360;30.424;2023-12-20T15:11:47;3;2.7;1.7
74436;PMS7003;62868;52.360;30.424;2023-12-20T15:16:43;2;2;1.3
74436;PMS7003;62868;52.360;30.424;2023-12-20T15:22:13;3.3;2.3;1.3
74436;PMS7003;62868;52.360;30.424;2023-12-20T15:27:15;2.3;2;1.3
74436;PMS7003;62868;52.360;30.424;2023-12-20T15:32:03;2.3;2;1.3
74436;PMS7003;62868;52.360;30.424;2023-12-20T15:37:01;2.5;1.5;0.8
74436;PMS7003;62868;52.360;30.424;2023-12-20T15:41:53;1.7;1.3;1
74436;PMS7003;62868;52.360;30.424;2023-12-20T15:47:15;2.7;2;1
74436;PMS7003;62868;52.360;30.424;2023-12-20T15:51:27;5;3;1.7
74436;PMS7003;62868;52.360;30.424;2023-12-20T15:57:03;2.3;1.8;1
74436;PMS7003;62868;52.360;30.424;2023-12-20T16:02:11;2.3;2;1
74436;PMS7003;62868;52.360;30.424;2023-12-20T16:06:27;2;1.3;1.3
74436;PMS7003;62868;52.360;30.424;2023-12-20T16:12:13;2.3;1.7;1
74436;PMS7003;62868;52.360;30.424;2023-12-20T16:16:29;2;1.8;1
74436;PMS7003;62868;52.360;30.424;2023-12-20T16:22:15;1.7;1.3;1.3
74436;PMS7003;62868;52.360;30.424;2023-12-20T16:27:15;2;1.7;1
74436;PMS7003;62868;52.360;30.424;2023-12-20T16:31:53;1.7;1;0.7
74436;PMS7003;62868;52.360;30.424;2023-12-20T16:36:27;3.5;1.8;1.3
74436;PMS7003;62868;52.360;30.424;2023-12-20T16:42:13;1.3;1.3;1
74436;PMS7003;62868;52.360;30.424;2023-12-20T16:46:27;2.3;1.3;1.3
74436;PMS7003;62868;52.360;30.424;2023-12-20T16:51:37;2.7;1;0.7
74436;PMS7003;62868;52.360;30.424;2023-12-20T16:56:41;1.3;1.3;0.8
74436;PMS7003;62868;52.360;30.424;2023-12-20T17:01:55;2;1.3;1.3
74436;PMS7003;62868;52.360;30.424;2023-12-20T17:06:54;2.3;2;1.3
74436;PMS7003;62868;52.360;30.424;2023-12-20T17:12:03;3.7;2.3;1.3
74436;PMS7003;62868;52.360;30.424;2023-12-20T17:17:15;3;2.3;1.5
74436;PMS7003;62868;52.360;30.424;2023-12-20T17:21:43;3.3;2.3;1.3
74436;PMS7003;62868;52.360;30.424;2023-12-20T17:26:27;1.7;1.3;0.7
74436;PMS7003;62868;52.360;30.424;2023-12-20T17:31:35;2.3;1.3;1
74436;PMS7003;62868;52.360;30.424;2023-12-20T17:36:53;1;0.7;0.7
74436;PMS7003;62868;52.360;30.424;2023-12-20T17:41:37;1.7;1.3;0.7
74436;PMS7003;62868;52.360;30.424;2023-12-20T17:46:35;1.7;1.3;1
74436;PMS7003;62868;52.360;30.424;2023-12-20T17:52:15;1.8;1;0.8
74436;PMS7003;62868;52.360;30.424;2023-12-20T17:56:45;2.3;1.7;1.3
74436;PMS7003;62868;52.360;30.424;2023-12-20T18:02:11;1.7;1;1
74436;PMS7003;62868;52.360;30.424;2023-12-20T18:07:13;3;2.3;1.3
74436;PMS7003;62868;52.360;30.424;2023-12-20T18:11:27;2.8;2.3;1.3
74436;PMS7003;62868;52.360;30.424;2023-12-20T18:16:54;2.3;1;1
74436;PMS7003;62868;52.360;30.424;2023-12-20T18:22:05;1.3;1.3;1.3
74436;PMS7003;62868;52.360;30.424;2023-12-20T18:26:45;2.3;2;1.7
74436;PMS7003;62868;52.360;30.424;2023-12-20T18:31:43;3.3;1.8;1
74436;PMS7003;62868;52.360;30.424;2023-12-20T18:36:43;1.3;1;1
74436;PMS7003;62868;52.360;30.424;2023-12-20T18:42:15;2.7;2;1.3
74436;PMS7003;62868;52.360;30.424;2023-12-20T18:46:53;1.8;1.5;1.3
74436;PMS7003;62868;52.360;30.424;2023-12-20T18:52:13;2;2;1
74436;PMS7003;62868;52.360;30.424;2023-12-20T18:57:01;2;1.3;1.3
74436;PMS7003;62868;52.360;30.424;2023-12-20T19:01:35;1.7;1.3;0.7
74436;PMS7003;62868;52.360;30.424;2023-12-20T19:06:27;1;0.8;0.8
74436;PMS7003;62868;52.360;30.424;2023-12-20T19:11:27;2;1.3;1
74436;PMS7003;62868;52.360;30.424;2023-12-20T19:16:27;1;1;0.7
74436;PMS7003;62868;52.360;30.424;2023-12-20T19:21:51;2;1;0.7
74436;PMS7003;62868;52.360;30.424;2023-12-20T19:26:27;1;0.8;0.8
74436;PMS7003;62868;52.360;30.424;2023-12-20T19:31:53;1;1;1
74436;PMS7003;62868;52.360;30.424;2023-12-20T19:36:55;1.3;1;0.7
74436;PMS7003;62868;52.360;30.424;2023-12-20T19:42:05;1.3;1;0.7
74436;PMS7003;62868;52.360;30.424;2023-12-20T19:46:49;2.5;1.3;0.8
74436;PMS7003;62868;52.360;30.424;2023-12-20T19:52:03;3;1.7;1
74436;PMS7003;62868;52.360;30.424;2023-12-20T19:56:27;1.7;1;0.7
74436;PMS7003;62868;52.360;30.424;2023-12-20T20:01:27;3.7;1.7;1.3
74436;PMS7003;62868;52.360;30.424;2023-12-20T20:06:27;0.8;0.8;0.8
74436;PMS7003;62868;52.360;30.424;2023-12-20T20:11:53;1;1;1
74436;PMS7003;62868;52.360;30.424;2023-12-20T20:16:33;2.3;1.3;1
74436;PMS7003;62868;52.360;30.424;2023-12-20T20:22:15;1;1;0.7
74436;PMS7003;62868;52.360;30.424;2023-12-20T20:26:47;1.5;1.3;1
74436;PMS7003;62868;52.360;30.424;2023-12-20T20:32:15;0.3;0.3;0.3
74436;PMS7003;62868;52.360;30.424;2023-12-20T20:37:13;1;0.7;0.7
74436;PMS7003;62868;52.360;30.424;2023-12-20T20:41:53;1.5;1.3;0.8
74436;PMS7003;62868;52.360;30.424;2023-12-20T20:46:53;2.7;1.7;1
74436;PMS7003;62868;52.360;30.424;2023-12-20T20:51:27;1;0.7;0.3
74436;PMS7003;62868;52.360;30.424;2023-12-20T20:56:43;1;1;0.7
74436;PMS7003;62868;52.360;30.424;2023-12-20T21:02:03;0.5;0.5;0
74436;PMS7003;62868;52.360;30.424;2023-12-20T21:07:05;0.7;0.3;0
74436;PMS7003;62868;52.360;30.424;2023-12-20T21:11:35;1;0.3;0
74436;PMS7003;62868;52.360;30.424;2023-12-20T21:16:39;1.3;0.3;0.3
74436;PMS7003;62868;52.360;30.424;2023-12-20T21:21:30;0.8;0.3;0.3
74436;PMS7003;62868;52.360;30.424;2023-12-20T21:27:15;0.3;0;0
74436;PMS7003;62868;52.360;30.424;2023-12-20T21:31:47;0.3;0;0
74436;PMS7003;62868;52.360;30.424;2023-12-20T21:36:35;0.3;0.3;0
74436;PMS7003;62868;52.360;30.424;2023-12-20T21:41:55;0;0;0
74436;PMS7003;62868;52.360;30.424;2023-12-20T21:46:43;0.3;0;0
74436;PMS7003;62868;52.360;30.424;2023-12-20T21:52:13;0.3;0;0
74436;PMS7003;62868;52.360;30.424;2023-12-20T21:56:43;0.3;0.3;0
74436;PMS7003;62868;52.360;30.424;2023-12-20T22:01:27;0;0;0
74436;PMS7003;62868;52.360;30.424;2023-12-20T22:06:53;0;0;0
74436;PMS7003;62868;52.360;30.424;2023-12-20T22:11:47;0;0;0
74436;PMS7003;62868;52.360;30.424;2023-12-20T22:17:13;0.3;0;0
74436;PMS7003;62868;52.360;30.424;2023-12-20T22:22:13;0.7;0;0
74436;PMS7003;62868;52.360;30.424;2023-12-20T22:26:27;0.7;0;0
74436;PMS7003;62868;52.360;30.424;2023-12-20T22:31:35;0;0;0
74436;PMS7003;62868;52.360;30.424;2023-12-20T22:36:45;0.3;0;0
74436;PMS7003;62868;52.360;30.424;2023-12-20T22:42:03;0;0;0
74436;PMS7003;62868;52.360;30.424;2023-12-20T22:46:27;0;0;0
74436;PMS7003;62868;52.360;30.424;2023-12-20T22:51:35;0;0;0
74436;PMS7003;62868;52.360;30.424;2023-12-20T22:56:51;0;0;0
74436;PMS7003;62868;52.360;30.424;2023-12-20T23:02:03;0;0;0
74436;PMS7003;62868;52.360;30.424;2023-12-20T23:07:13;0;0;0
74436;PMS7003;62868;52.360;30.424;2023-12-20T23:12:05;0;0;0
74436;PMS7003;62868;52.360;30.424;2023-12-20T23:16:45;0;0;0
74436;PMS7003;62868;52.360;30.424;2023-12-20T23:21:27;0;0;0
74436;PMS7003;62868;52.360;30.424;2023-12-20T23:26:27;0;0;0
74436;PMS7003;62868;52.360;30.424;2023-12-20T23:31:29;0;0;0
74436;PMS7003;62868;52.360;30.424;2023-12-20T23:36:33;0;0;0
74436;PMS7003;62868;52.360;30.424;2023-12-20T23:41:35;0;0;0
74436;PMS7003;62868;52.360;30.424;2023-12-20T23:46:37;0;0;0
74436;PMS7003;62868;52.360;30.424;2023-12-20T23:52:03;0;0;0
74436;PMS7003;62868;52.360;30.424;2023-12-20T23:57:15;0;0;0
